Terminal Aerodrome Forecast
Issued by NWS Boise, ID

Home | Current Version | Previous Version | Text Only | Print | Product List | Glossary On
Versions: 1 2 3 4 5 6 7 8 9 10 11 12 13 14 15 16 17 18 19 20 21 22 23 24 25 26 27 28 29 30 31 32 33 34 35 36 37 38
000
FTUS45 KBOI 242320
TAFBOI
TAF
KBOI 242320Z 2500/2524 VRB06KT P6SM VCTS BKN050CB OVC090
      TEMPO 2500/2501 1SM -SHSNPL BKN025 OVC040
     FM250100 32012KT P6SM SCT030 BKN050
     FM251500 13010KT P6SM VCSH OVC050
     FM252100 13016G22KT 4SM -SHSN OVC025=

USA.gov is the U.S. government's official web portal to all federal, state and local government web resources and services.